createdAt,value
2022-09-27T08:19:07.977Z,98454.53
2022-09-27T08:21:34.997Z,98467.00
2022-09-27T08:24:01.783Z,98458.06
2022-09-27T08:26:28.774Z,98461.38
2022-09-27T08:28:55.389Z,98462.66
2022-09-27T08:31:22.031Z,98475.31
2022-09-27T08:33:52.105Z,98470.31
2022-09-27T08:36:20.154Z,98472.91
2022-09-27T08:38:51.037Z,98486.34
2022-09-27T08:41:36.553Z,98477.72
2022-09-27T08:44:11.460Z,98487.97
2022-09-27T08:47:01.608Z,98487.41
2022-09-27T08:49:38.682Z,98491.72
2022-09-27T08:52:13.882Z,98488.47
2022-09-27T08:54:40.426Z,98490.88
2022-09-27T08:57:14.682Z,98485.19
2022-09-27T08:59:47.521Z,98492.75
2022-09-27T09:02:19.499Z,98497.25
2022-09-27T09:04:50.288Z,98495.66
2022-09-27T09:07:44.882Z,98494.78
2022-09-27T09:10:38.509Z,98494.78
2022-09-27T09:13:28.726Z,98491.47
2022-09-27T09:16:16.245Z,98485.50
2022-09-27T09:18:52.023Z,98503.28
2022-09-27T09:21:33.894Z,98508.41
2022-09-27T09:24:42.718Z,98511.47
2022-09-27T09:27:12.145Z,98507.53
2022-09-27T09:30:18.629Z,98498.78
2022-09-27T09:32:50.951Z,98514.22
2022-09-27T09:35:23.808Z,98509.31
2022-09-27T09:37:58.502Z,98523.06
2022-09-27T09:40:33.772Z,98514.38
2022-09-27T09:43:05.705Z,98501.41
2022-09-27T09:45:38.895Z,98506.78
2022-09-27T09:48:27.626Z,98516.41
2022-09-27T09:50:59.624Z,98521.56
2022-09-27T09:53:26.176Z,98512.09
2022-09-27T09:55:58.236Z,98521.94
2022-09-27T09:58:35.042Z,98520.50
2022-09-27T10:01:14.683Z,98517.13
2022-09-27T10:03:41.263Z,98514.44
2022-09-27T10:06:09.752Z,98516.25
2022-09-27T10:08:36.576Z,98512.91
2022-09-27T10:11:03.743Z,98512.28
2022-09-27T10:13:33.829Z,98509.75
2022-09-27T10:16:06.915Z,98517.22
2022-09-27T10:18:37.372Z,98516.63
2022-09-27T10:21:20.096Z,98509.84
2022-09-27T10:24:17.295Z,98511.81
2022-09-27T10:26:47.253Z,98510.88
2022-09-27T10:29:19.937Z,98511.59
2022-09-27T10:31:48.734Z,98511.09
2022-09-27T10:34:26.378Z,98514.75
2022-09-27T10:37:22.585Z,98502.69
2022-09-27T10:39:53.815Z,98516.38
2022-09-27T10:42:21.541Z,98513.16
2022-09-27T10:44:48.381Z,98516.38
2022-09-27T10:47:22.929Z,98518.97
2022-09-27T10:49:53.881Z,98518.97
2022-09-27T10:52:22.830Z,98520.59
2022-09-27T10:54:58.262Z,98524.78
2022-09-27T10:57:27.332Z,98524.25
2022-09-27T10:59:59.657Z,98515.47
2022-09-27T11:02:37.844Z,98513.72
2022-09-27T11:05:15.917Z,98529.38
2022-09-27T11:08:01.530Z,98518.41
2022-09-27T11:10:36.986Z,98523.31
2022-09-27T11:13:16.362Z,98520.09
2022-09-27T11:16:01.735Z,98514.09
2022-09-27T11:18:34.125Z,98500.13
2022-09-27T11:21:23.614Z,98503.06
2022-09-27T11:24:02.293Z,98511.59
2022-09-27T11:26:46.937Z,98509.22
2022-09-27T11:29:26.629Z,98521.16
2022-09-27T11:32:05.055Z,98505.03
2022-09-27T11:35:10.203Z,98522.94
2022-09-27T11:38:04.747Z,98524.44
2022-09-27T11:40:37.941Z,98527.56
2022-09-27T11:43:16.311Z,98519.50
2022-09-27T11:46:16.579Z,98533.75
2022-09-27T11:49:07.989Z,98532.88
2022-09-27T11:52:31.944Z,98527.75
2022-09-27T11:55:05.512Z,98524.91
2022-09-27T11:57:38.490Z,98543.03
2022-09-27T12:00:25.290Z,98552.16
2022-09-27T12:02:55.066Z,98548.97
2022-09-27T12:05:58.207Z,98557.81
2022-09-27T12:08:25.805Z,98556.56
2022-09-27T12:11:03.314Z,98552.03
2022-09-27T12:13:38.206Z,98554.47
2022-09-27T12:16:05.648Z,98561.25
2022-09-27T12:18:39.094Z,98557.78
2022-09-27T12:21:09.682Z,98562.06
2022-09-27T12:23:44.163Z,98558.91
2022-09-27T12:26:19.891Z,98558.97
2022-09-27T12:29:05.447Z,98559.50
2022-09-27T12:31:42.554Z,98561.69
2022-09-27T12:34:35.278Z,98560.75
2022-09-27T12:37:18.501Z,98569.59
2022-09-27T12:39:55.718Z,98580.25
2022-09-27T12:42:32.083Z,98575.03
2022-09-27T12:44:58.723Z,98581.84
2022-09-27T12:47:25.156Z,98591.69
2022-09-27T12:50:01.444Z,98601.38
2022-09-27T12:52:34.886Z,98577.78
2022-09-27T12:55:08.252Z,98590.78
2022-09-27T12:58:07.598Z,98585.16
2022-09-27T13:00:45.453Z,98587.25
2022-09-27T13:03:20.385Z,98597.41
2022-09-27T13:06:17.708Z,98600.44
2022-09-27T13:09:11.101Z,98595.47
2022-09-27T13:12:11.042Z,98599.50
2022-09-27T13:15:00.013Z,98596.03
2022-09-27T13:17:42.388Z,98597.50
2022-09-27T13:20:35.808Z,98608.44
2022-09-27T13:23:18.802Z,98605.81
2022-09-27T13:25:56.744Z,98597.28
2022-09-27T13:28:32.083Z,98597.47
2022-09-27T13:30:59.374Z,98598.97
2022-09-27T13:33:29.012Z,98594.47
2022-09-27T13:36:25.029Z,98599.03
2022-09-27T13:39:11.706Z,98602.69
2022-09-27T13:41:48.681Z,98605.97
2022-09-27T13:44:36.602Z,98601.19
2022-09-27T13:47:24.317Z,98602.44
2022-09-27T13:49:53.137Z,98597.09
2022-09-27T13:52:26.429Z,98600.66
2022-09-27T13:54:56.107Z,98598.81
2022-09-27T13:57:42.512Z,98597.94
2022-09-27T14:00:24.922Z,98602.44
2022-09-27T14:02:57.418Z,98589.59
2022-09-27T14:05:33.021Z,98597.47
2022-09-27T14:08:02.477Z,98603.34
2022-09-27T14:10:30.313Z,98598.31
2022-09-27T14:13:00.209Z,98605.09
2022-09-27T14:15:32.704Z,98626.25
2022-09-27T14:20:45.037Z,98644.72
2022-09-27T14:23:23.521Z,98630.25
2022-09-27T14:25:52.801Z,98625.59
2022-09-27T14:28:20.350Z,98629.25
2022-09-27T14:30:47.821Z,98631.56
2022-09-27T14:33:31.560Z,98626.66
2022-09-27T14:36:21.685Z,98636.41
2022-09-27T14:38:50.270Z,98632.19
2022-09-27T14:41:17.078Z,98642.00
2022-09-27T14:43:46.198Z,98634.53
2022-09-27T14:46:28.136Z,98638.84
2022-09-27T14:48:55.957Z,98640.38
2022-09-27T14:51:33.003Z,98637.41
2022-09-27T14:54:01.616Z,98648.88
2022-09-27T14:56:32.663Z,98642.38
2022-09-27T14:59:14.044Z,98642.38
2022-09-27T15:01:50.424Z,98634.34
2022-09-27T15:04:19.487Z,98632.81
2022-09-27T15:06:47.350Z,98630.97
2022-09-27T15:09:16.127Z,98636.63
2022-09-27T15:11:44.653Z,98629.94
2022-09-27T15:14:16.900Z,98633.38
2022-09-27T15:16:46.203Z,98635.84
2022-09-27T15:19:22.355Z,98635.25
2022-09-27T15:21:48.950Z,98645.31
2022-09-27T15:24:34.143Z,98643.41
2022-09-27T15:27:01.473Z,98636.38
2022-09-27T15:29:28.692Z,98650.13
2022-09-27T15:32:01.368Z,98649.59
2022-09-27T15:34:30.041Z,98640.19
2022-09-27T15:37:03.563Z,98649.66
2022-09-27T15:39:37.719Z,98640.19
2022-09-27T15:42:17.665Z,98642.16
2022-09-27T15:44:47.391Z,98642.97
2022-09-27T15:47:32.170Z,98651.81
2022-09-27T15:49:59.784Z,98669.22
2022-09-27T15:52:45.363Z,98672.91
2022-09-27T15:55:13.165Z,98677.31
2022-09-27T15:57:41.135Z,98677.91
2022-09-27T16:00:13.714Z,98692.72
2022-09-27T16:02:40.179Z,98697.09
2022-09-27T16:05:07.106Z,98695.75
2022-09-27T16:07:33.759Z,98686.88
2022-09-27T16:10:00.406Z,98678.06
2022-09-27T16:12:30.206Z,98679.09
2022-09-27T16:14:57.183Z,98670.53
2022-09-27T16:17:23.677Z,98668.97
2022-09-27T16:19:50.626Z,98669.25
2022-09-27T16:22:17.165Z,98662.53
2022-09-27T16:24:43.732Z,98658.75
2022-09-27T16:27:10.239Z,98666.59
2022-09-27T16:29:37.425Z,98667.16
2022-09-27T16:32:07.003Z,98665.00
2022-09-27T16:34:33.535Z,98662.06
2022-09-27T16:37:04.165Z,98667.44
2022-09-27T16:39:31.396Z,98667.97
2022-09-27T16:41:57.987Z,98667.97
2022-09-27T16:44:24.907Z,98661.00
2022-09-27T16:46:51.603Z,98657.75
2022-09-27T16:49:36.732Z,98664.66
2022-09-27T16:52:03.306Z,98659.88
2022-09-27T16:54:29.989Z,98670.16
2022-09-27T16:56:58.719Z,98658.47
2022-09-27T16:59:25.561Z,98665.56
2022-09-27T17:01:53.036Z,98662.09
2022-09-27T17:04:19.619Z,98664.25
2022-09-27T17:06:46.311Z,98664.25
2022-09-27T17:09:12.702Z,98660.38
2022-09-27T17:11:39.252Z,98659.94
2022-09-27T17:14:05.834Z,98662.09
2022-09-27T17:16:32.450Z,98663.44
2022-09-27T17:18:59.147Z,98668.72
2022-09-27T17:21:25.725Z,98663.69
2022-09-27T17:23:52.294Z,98671.22
2022-09-27T17:26:21.590Z,98669.66
2022-09-27T17:28:49.948Z,98679.59
2022-09-27T17:31:18.878Z,98680.16
2022-09-27T17:33:48.646Z,98684.19
2022-09-27T17:36:27.704Z,98684.44
2022-09-27T17:38:54.523Z,98681.78
2022-09-27T17:41:24.316Z,98677.19
2022-09-27T17:43:56.603Z,98691.44
2022-09-27T17:46:35.340Z,98684.72
2022-09-27T17:49:21.107Z,98684.75
2022-09-27T17:51:50.887Z,98694.44
2022-09-27T17:54:19.783Z,98688.81
2022-09-27T17:56:47.533Z,98689.03
2022-09-27T17:59:16.096Z,98689.31
2022-09-27T18:01:44.871Z,98688.53
2022-09-27T18:04:13.691Z,98692.28
2022-09-27T18:06:46.176Z,98700.38
2022-09-27T18:09:16.830Z,98698.50
2022-09-27T18:11:44.307Z,98691.78
2022-09-27T18:14:11.787Z,98687.97
2022-09-27T18:16:43.130Z,98686.63
2022-09-27T18:19:16.392Z,98704.41
2022-09-27T18:21:43.186Z,98694.72
2022-09-27T18:24:10.984Z,98697.13
2022-09-27T18:26:38.895Z,98695.25
2022-09-27T18:29:08.200Z,98697.66
2022-09-27T18:31:34.812Z,98699.56
2022-09-27T18:34:02.986Z,98701.63
2022-09-27T18:36:29.732Z,98699.81
2022-09-27T18:38:57.389Z,98712.09
2022-09-27T18:41:26.215Z,98712.75
2022-09-27T18:43:57.029Z,98706.53
2022-09-27T18:46:41.065Z,98701.72
2022-09-27T18:49:10.760Z,98711.69
2022-09-27T18:51:42.053Z,98704.13
2022-09-27T18:54:13.659Z,98700.38
2022-09-27T18:56:41.178Z,98702.00
2022-09-27T18:59:08.981Z,98698.75
2022-09-27T19:01:39.890Z,98696.06
2022-09-27T19:04:08.036Z,98699.31
2022-09-27T19:06:35.534Z,98704.19
2022-09-27T19:09:03.650Z,98705.25
2022-09-27T19:11:30.450Z,98709.00
2022-09-27T19:13:58.221Z,98699.31
2022-09-27T19:16:27.182Z,98696.63
2022-09-27T19:18:54.405Z,98711.44
2022-09-27T19:21:23.521Z,98708.75
2022-09-27T19:23:51.364Z,98711.72
2022-09-27T19:26:21.150Z,98711.72
2022-09-27T19:28:47.979Z,98711.72
2022-09-27T19:31:19.698Z,98707.41
2022-09-27T19:33:46.674Z,98704.69
2022-09-27T19:36:14.942Z,98701.22
2022-09-27T19:38:41.629Z,98707.66
2022-09-27T19:41:09.201Z,98699.28
2022-09-27T19:43:35.913Z,98705.81
2022-09-27T19:46:06.622Z,98704.13
2022-09-27T19:48:35.324Z,98713.06
2022-09-27T19:51:01.994Z,98711.72
2022-09-27T19:53:32.191Z,98704.41
2022-09-27T19:56:04.408Z,98703.06
2022-09-27T19:58:32.713Z,98709.00
2022-09-27T20:01:00.051Z,98710.09
2022-09-27T20:03:26.869Z,98710.09
2022-09-27T20:05:55.158Z,98703.63
2022-09-27T20:08:22.126Z,98703.63
2022-09-27T20:11:06.349Z,98696.34
2022-09-27T20:13:34.700Z,98702.28
2022-09-27T20:16:10.562Z,98702.81
2022-09-27T20:18:40.339Z,98708.22
2022-09-27T20:21:07.414Z,98699.31
2022-09-27T20:23:34.930Z,98710.63
2022-09-27T20:26:02.839Z,98709.56
2022-09-27T20:28:30.099Z,98701.50
2022-09-27T20:31:04.918Z,98704.97
2022-09-27T20:33:41.129Z,98703.06
2022-09-27T20:36:09.830Z,98705.53
2022-09-27T20:38:36.529Z,98708.47
2022-09-27T20:41:03.094Z,98701.69
2022-09-27T20:43:31.614Z,98695.00
2022-09-27T20:46:03.058Z,98702.00
2022-09-27T20:48:29.947Z,98702.81
2022-09-27T20:51:02.386Z,98699.88
2022-09-27T20:53:31.255Z,98696.06
2022-09-27T20:55:59.488Z,98702.00
2022-09-27T20:58:26.523Z,98691.50
2022-09-27T21:00:53.113Z,98701.44
2022-09-27T21:03:22.013Z,98699.75
2022-09-27T21:05:58.438Z,98706.50
2022-09-27T21:08:25.658Z,98707.31
2022-09-27T21:10:53.994Z,98709.97
2022-09-27T21:13:21.327Z,98705.13
2022-09-27T21:15:48.222Z,98705.66
2022-09-27T21:18:14.831Z,98706.16
2022-09-27T21:20:41.368Z,98710.47
2022-09-27T21:23:07.888Z,98701.28
2022-09-27T21:25:34.484Z,98694.25
2022-09-27T21:28:04.308Z,98695.69
2022-09-27T21:30:31.186Z,98707.41
2022-09-27T21:32:57.931Z,98699.56
2022-09-27T21:35:24.708Z,98700.09
2022-09-27T21:37:51.400Z,98697.41
2022-09-27T21:40:17.838Z,98695.34
2022-09-27T21:42:44.384Z,98690.91
2022-09-27T21:45:11.036Z,98687.94
2022-09-27T21:47:37.431Z,98694.22
2022-09-27T21:50:04.316Z,98688.72
2022-09-27T21:52:30.847Z,98696.78
2022-09-27T21:54:57.311Z,98694.66
2022-09-27T21:57:23.935Z,98693.03
2022-09-27T21:59:50.400Z,98699.00
2022-09-27T22:02:19.526Z,98693.50
2022-09-27T22:04:46.064Z,98695.16
2022-09-27T22:07:12.552Z,98696.50
2022-09-27T22:09:39.076Z,98691.88
2022-09-27T22:12:06.336Z,98698.91
2022-09-27T22:14:34.596Z,98692.97
2022-09-27T22:17:01.159Z,98694.56
2022-09-27T22:19:27.626Z,98696.44
2022-09-27T22:21:54.119Z,98693.44
2022-09-27T22:24:20.599Z,98692.88
2022-09-27T22:26:50.117Z,98698.53
2022-09-27T22:29:17.295Z,98688.03
2022-09-27T22:31:43.990Z,98684.25
2022-09-27T22:34:18.860Z,98687.22
2022-09-27T22:36:46.057Z,98686.88
2022-09-27T22:39:12.975Z,98677.75
2022-09-27T22:41:39.686Z,98677.53
2022-09-27T22:44:07.665Z,98669.97
2022-09-27T22:46:34.507Z,98667.06
2022-09-27T22:49:01.094Z,98671.91
2022-09-27T22:51:27.669Z,98672.47
2022-09-27T22:53:54.332Z,98671.94
2022-09-27T22:56:20.840Z,98666.59
2022-09-27T22:58:48.739Z,98663.34
2022-09-27T23:01:24.936Z,98667.06
2022-09-27T23:03:54.985Z,98663.88
